sensor_id;sensor_type;location;lat;lon;timestamp;P1;durP1;ratioP1;P2;durP2;ratioP2
10761;SDS011;5433;50.862;4.320;2022-09-21T00:02:09;9.52;;;5.90;;
10761;SDS011;5433;50.862;4.320;2022-09-21T00:04:35;8.15;;;6.30;;
10761;SDS011;5433;50.862;4.320;2022-09-21T00:07:01;9.65;;;6.20;;
10761;SDS011;5433;50.862;4.320;2022-09-21T00:09:27;8.10;;;6.03;;
10761;SDS011;5433;50.862;4.320;2022-09-21T00:11:53;8.75;;;6.55;;
10761;SDS011;5433;50.862;4.320;2022-09-21T00:14:20;10.77;;;6.40;;
10761;SDS011;5433;50.862;4.320;2022-09-21T00:16:46;7.95;;;6.20;;
10761;SDS011;5433;50.862;4.320;2022-09-21T00:19:12;9.60;;;6.45;;
10761;SDS011;5433;50.862;4.320;2022-09-21T00:21:40;9.63;;;6.43;;
10761;SDS011;5433;50.862;4.320;2022-09-21T00:24:06;10.18;;;6.53;;
10761;SDS011;5433;50.862;4.320;2022-09-21T00:26:33;9.43;;;6.55;;
10761;SDS011;5433;50.862;4.320;2022-09-21T00:29:00;8.40;;;6.45;;
10761;SDS011;5433;50.862;4.320;2022-09-21T00:31:27;11.00;;;7.07;;
10761;SDS011;5433;50.862;4.320;2022-09-21T00:33:54;8.35;;;6.80;;
10761;SDS011;5433;50.862;4.320;2022-09-21T00:36:21;8.60;;;6.75;;
10761;SDS011;5433;50.862;4.320;2022-09-21T00:38:48;12.27;;;7.18;;
10761;SDS011;5433;50.862;4.320;2022-09-21T00:41:15;11.32;;;6.95;;
10761;SDS011;5433;50.862;4.320;2022-09-21T00:43:42;8.63;;;6.75;;
10761;SDS011;5433;50.862;4.320;2022-09-21T00:46:15;10.05;;;6.82;;
10761;SDS011;5433;50.862;4.320;2022-09-21T00:51:48;8.65;;;6.50;;
10761;SDS011;5433;50.862;4.320;2022-09-21T00:54:17;9.55;;;6.22;;
10761;SDS011;5433;50.862;4.320;2022-09-21T00:56:44;8.15;;;6.18;;
10761;SDS011;5433;50.862;4.320;2022-09-21T00:59:11;10.07;;;6.43;;
10761;SDS011;5433;50.862;4.320;2022-09-21T01:01:38;9.57;;;6.00;;
10761;SDS011;5433;50.862;4.320;2022-09-21T01:04:04;9.85;;;6.70;;
10761;SDS011;5433;50.862;4.320;2022-09-21T01:06:31;9.80;;;6.88;;
10761;SDS011;5433;50.862;4.320;2022-09-21T01:08:59;8.20;;;6.78;;
10761;SDS011;5433;50.862;4.320;2022-09-21T01:22:36;8.52;;;7.10;;
10761;SDS011;5433;50.862;4.320;2022-09-21T01:25:18;8.43;;;6.80;;
10761;SDS011;5433;50.862;4.320;2022-09-21T01:28:01;8.93;;;6.68;;
10761;SDS011;5433;50.862;4.320;2022-09-21T01:30:37;8.48;;;6.80;;
10761;SDS011;5433;50.862;4.320;2022-09-21T01:33:08;9.57;;;6.70;;
10761;SDS011;5433;50.862;4.320;2022-09-21T01:35:39;9.15;;;6.97;;
10761;SDS011;5433;50.862;4.320;2022-09-21T01:41:11;9.13;;;6.38;;
10761;SDS011;5433;50.862;4.320;2022-09-21T01:43:42;10.05;;;6.70;;
10761;SDS011;5433;50.862;4.320;2022-09-21T01:46:12;9.18;;;7.20;;
10761;SDS011;5433;50.862;4.320;2022-09-21T01:48:40;11.52;;;6.60;;
10761;SDS011;5433;50.862;4.320;2022-09-21T01:51:09;10.55;;;6.85;;
10761;SDS011;5433;50.862;4.320;2022-09-21T01:56:15;8.48;;;6.78;;
10761;SDS011;5433;50.862;4.320;2022-09-21T01:58:45;8.45;;;6.90;;
10761;SDS011;5433;50.862;4.320;2022-09-21T02:01:16;13.52;;;8.02;;
10761;SDS011;5433;50.862;4.320;2022-09-21T02:03:46;13.70;;;8.73;;
10761;SDS011;5433;50.862;4.320;2022-09-21T02:06:14;11.82;;;8.57;;
10761;SDS011;5433;50.862;4.320;2022-09-21T02:08:40;12.63;;;8.20;;
10761;SDS011;5433;50.862;4.320;2022-09-21T02:11:07;10.93;;;8.32;;
10761;SDS011;5433;50.862;4.320;2022-09-21T02:13:37;10.65;;;8.00;;
10761;SDS011;5433;50.862;4.320;2022-09-21T02:18:34;11.38;;;8.48;;
10761;SDS011;5433;50.862;4.320;2022-09-21T02:21:07;10.57;;;7.78;;
10761;SDS011;5433;50.862;4.320;2022-09-21T02:23:40;11.82;;;8.55;;
10761;SDS011;5433;50.862;4.320;2022-09-21T02:28:38;12.98;;;8.57;;
10761;SDS011;5433;50.862;4.320;2022-09-21T02:31:17;10.98;;;8.00;;
10761;SDS011;5433;50.862;4.320;2022-09-21T02:36:37;14.30;;;8.38;;
10761;SDS011;5433;50.862;4.320;2022-09-21T02:39:09;11.25;;;8.00;;
10761;SDS011;5433;50.862;4.320;2022-09-21T02:41:42;10.10;;;8.20;;
10761;SDS011;5433;50.862;4.320;2022-09-21T02:44:16;9.50;;;7.60;;
10761;SDS011;5433;50.862;4.320;2022-09-21T02:49:48;11.55;;;7.38;;
10761;SDS011;5433;50.862;4.320;2022-09-21T02:52:17;10.73;;;7.18;;
10761;SDS011;5433;50.862;4.320;2022-09-21T02:54:45;11.25;;;7.15;;
10761;SDS011;5433;50.862;4.320;2022-09-21T02:57:13;8.02;;;6.95;;
10761;SDS011;5433;50.862;4.320;2022-09-21T02:59:39;11.73;;;7.15;;
10761;SDS011;5433;50.862;4.320;2022-09-21T03:02:05;10.57;;;7.25;;
10761;SDS011;5433;50.862;4.320;2022-09-21T03:04:32;10.00;;;7.20;;
10761;SDS011;5433;50.862;4.320;2022-09-21T03:06:58;10.88;;;6.80;;
10761;SDS011;5433;50.862;4.320;2022-09-21T03:09:24;8.63;;;6.35;;
10761;SDS011;5433;50.862;4.320;2022-09-21T03:11:50;9.35;;;7.22;;
10761;SDS011;5433;50.862;4.320;2022-09-21T03:17:15;9.55;;;7.05;;
10761;SDS011;5433;50.862;4.320;2022-09-21T03:19:41;11.10;;;7.72;;
10761;SDS011;5433;50.862;4.320;2022-09-21T03:25:11;10.90;;;8.00;;
10761;SDS011;5433;50.862;4.320;2022-09-21T03:27:38;9.15;;;7.82;;
10761;SDS011;5433;50.862;4.320;2022-09-21T03:30:05;10.35;;;7.85;;
10761;SDS011;5433;50.862;4.320;2022-09-21T03:32:31;10.27;;;8.10;;
10761;SDS011;5433;50.862;4.320;2022-09-21T03:34:57;9.32;;;7.88;;
10761;SDS011;5433;50.862;4.320;2022-09-21T03:37:23;11.55;;;8.77;;
10761;SDS011;5433;50.862;4.320;2022-09-21T03:39:49;11.57;;;8.00;;
10761;SDS011;5433;50.862;4.320;2022-09-21T03:42:15;10.57;;;7.60;;
10761;SDS011;5433;50.862;4.320;2022-09-21T03:44:41;9.38;;;7.53;;
10761;SDS011;5433;50.862;4.320;2022-09-21T03:47:08;9.23;;;7.60;;
10761;SDS011;5433;50.862;4.320;2022-09-21T03:49:34;10.48;;;8.25;;
10761;SDS011;5433;50.862;4.320;2022-09-21T03:52:01;9.75;;;7.97;;
10761;SDS011;5433;50.862;4.320;2022-09-21T03:54:27;8.35;;;7.25;;
10761;SDS011;5433;50.862;4.320;2022-09-21T03:56:53;10.23;;;7.70;;
10761;SDS011;5433;50.862;4.320;2022-09-21T03:59:19;9.70;;;7.70;;
10761;SDS011;5433;50.862;4.320;2022-09-21T04:01:45;12.35;;;7.80;;
10761;SDS011;5433;50.862;4.320;2022-09-21T04:04:11;10.30;;;7.90;;
10761;SDS011;5433;50.862;4.320;2022-09-21T04:06:37;9.52;;;8.48;;
10761;SDS011;5433;50.862;4.320;2022-09-21T04:09:03;10.10;;;8.15;;
10761;SDS011;5433;50.862;4.320;2022-09-21T04:11:29;9.77;;;7.90;;
10761;SDS011;5433;50.862;4.320;2022-09-21T04:13:56;11.23;;;8.35;;
10761;SDS011;5433;50.862;4.320;2022-09-21T04:16:25;10.70;;;8.10;;
10761;SDS011;5433;50.862;4.320;2022-09-21T04:18:56;10.45;;;8.18;;
10761;SDS011;5433;50.862;4.320;2022-09-21T04:21:22;11.50;;;8.05;;
10761;SDS011;5433;50.862;4.320;2022-09-21T04:23:48;11.15;;;8.15;;
10761;SDS011;5433;50.862;4.320;2022-09-21T04:26:22;9.63;;;8.25;;
10761;SDS011;5433;50.862;4.320;2022-09-21T04:28:49;9.35;;;8.40;;
10761;SDS011;5433;50.862;4.320;2022-09-21T04:31:15;11.98;;;8.52;;
10761;SDS011;5433;50.862;4.320;2022-09-21T04:33:41;11.40;;;8.25;;
10761;SDS011;5433;50.862;4.320;2022-09-21T04:36:07;10.88;;;8.10;;
10761;SDS011;5433;50.862;4.320;2022-09-21T04:38:33;13.13;;;8.27;;
10761;SDS011;5433;50.862;4.320;2022-09-21T04:40:59;11.32;;;8.25;;
10761;SDS011;5433;50.862;4.320;2022-09-21T04:43:27;9.50;;;8.18;;
10761;SDS011;5433;50.862;4.320;2022-09-21T04:45:53;10.75;;;8.75;;
10761;SDS011;5433;50.862;4.320;2022-09-21T04:48:19;10.60;;;8.32;;
10761;SDS011;5433;50.862;4.320;2022-09-21T04:50:48;11.65;;;8.15;;
10761;SDS011;5433;50.862;4.320;2022-09-21T04:53:14;10.25;;;8.02;;
10761;SDS011;5433;50.862;4.320;2022-09-21T04:55:40;10.73;;;8.57;;
10761;SDS011;5433;50.862;4.320;2022-09-21T04:58:06;10.32;;;8.15;;
10761;SDS011;5433;50.862;4.320;2022-09-21T05:00:32;12.32;;;8.40;;
10761;SDS011;5433;50.862;4.320;2022-09-21T05:02:58;12.88;;;8.93;;
10761;SDS011;5433;50.862;4.320;2022-09-21T05:05:24;13.60;;;9.00;;
10761;SDS011;5433;50.862;4.320;2022-09-21T05:07:50;12.50;;;8.95;;
10761;SDS011;5433;50.862;4.320;2022-09-21T05:10:16;11.85;;;9.10;;
10761;SDS011;5433;50.862;4.320;2022-09-21T05:12:42;11.43;;;8.52;;
10761;SDS011;5433;50.862;4.320;2022-09-21T05:15:09;13.13;;;9.07;;
10761;SDS011;5433;50.862;4.320;2022-09-21T05:17:39;11.73;;;8.98;;
10761;SDS011;5433;50.862;4.320;2022-09-21T05:20:05;12.00;;;8.95;;
10761;SDS011;5433;50.862;4.320;2022-09-21T05:22:31;11.32;;;8.88;;
10761;SDS011;5433;50.862;4.320;2022-09-21T05:24:57;11.07;;;8.70;;
10761;SDS011;5433;50.862;4.320;2022-09-21T05:27:23;12.40;;;8.77;;
10761;SDS011;5433;50.862;4.320;2022-09-21T05:29:49;11.75;;;8.52;;
10761;SDS011;5433;50.862;4.320;2022-09-21T05:34:56;10.80;;;9.10;;
10761;SDS011;5433;50.862;4.320;2022-09-21T05:37:33;12.60;;;8.93;;
10761;SDS011;5433;50.862;4.320;2022-09-21T05:40:02;12.40;;;9.02;;
10761;SDS011;5433;50.862;4.320;2022-09-21T05:42:28;13.57;;;9.32;;
10761;SDS011;5433;50.862;4.320;2022-09-21T05:44:54;12.25;;;8.88;;
10761;SDS011;5433;50.862;4.320;2022-09-21T05:50:05;13.65;;;9.65;;
10761;SDS011;5433;50.862;4.320;2022-09-21T05:55:20;11.50;;;9.70;;
10761;SDS011;5433;50.862;4.320;2022-09-21T06:00:19;13.63;;;9.05;;
10761;SDS011;5433;50.862;4.320;2022-09-21T06:05:13;11.50;;;8.70;;
10761;SDS011;5433;50.862;4.320;2022-09-21T06:07:39;14.48;;;10.82;;
10761;SDS011;5433;50.862;4.320;2022-09-21T06:10:06;18.23;;;13.10;;
10761;SDS011;5433;50.862;4.320;2022-09-21T06:12:32;16.40;;;12.77;;
10761;SDS011;5433;50.862;4.320;2022-09-21T06:14:58;14.85;;;11.70;;
10761;SDS011;5433;50.862;4.320;2022-09-21T06:17:24;14.73;;;10.80;;
10761;SDS011;5433;50.862;4.320;2022-09-21T06:19:51;14.50;;;10.93;;
10761;SDS011;5433;50.862;4.320;2022-09-21T06:22:17;13.23;;;11.20;;
10761;SDS011;5433;50.862;4.320;2022-09-21T06:24:43;12.95;;;11.23;;
10761;SDS011;5433;50.862;4.320;2022-09-21T06:27:10;17.45;;;11.52;;
10761;SDS011;5433;50.862;4.320;2022-09-21T06:29:36;14.77;;;10.90;;
10761;SDS011;5433;50.862;4.320;2022-09-21T06:32:02;14.38;;;11.25;;
10761;SDS011;5433;50.862;4.320;2022-09-21T06:34:28;14.38;;;10.38;;
10761;SDS011;5433;50.862;4.320;2022-09-21T06:36:55;36.03;;;12.55;;
10761;SDS011;5433;50.862;4.320;2022-09-21T06:39:21;14.25;;;9.98;;
10761;SDS011;5433;50.862;4.320;2022-09-21T06:41:47;22.45;;;11.15;;
10761;SDS011;5433;50.862;4.320;2022-09-21T06:44:13;12.40;;;10.30;;
10761;SDS011;5433;50.862;4.320;2022-09-21T06:46:39;12.35;;;9.98;;
10761;SDS011;5433;50.862;4.320;2022-09-21T06:49:05;15.40;;;10.63;;
10761;SDS011;5433;50.862;4.320;2022-09-21T06:51:31;15.88;;;10.60;;
10761;SDS011;5433;50.862;4.320;2022-09-21T06:53:57;17.00;;;10.90;;
10761;SDS011;5433;50.862;4.320;2022-09-21T06:56:24;14.90;;;10.77;;
10761;SDS011;5433;50.862;4.320;2022-09-21T06:58:50;13.32;;;10.45;;
10761;SDS011;5433;50.862;4.320;2022-09-21T07:01:16;14.38;;;10.35;;
10761;SDS011;5433;50.862;4.320;2022-09-21T07:03:43;19.27;;;10.73;;
10761;SDS011;5433;50.862;4.320;2022-09-21T07:06:10;14.82;;;10.90;;
10761;SDS011;5433;50.862;4.320;2022-09-21T07:08:38;23.98;;;14.85;;
10761;SDS011;5433;50.862;4.320;2022-09-21T07:11:04;20.05;;;11.93;;
10761;SDS011;5433;50.862;4.320;2022-09-21T07:13:30;14.60;;;10.98;;
10761;SDS011;5433;50.862;4.320;2022-09-21T07:15:56;141.20;;;60.50;;
10761;SDS011;5433;50.862;4.320;2022-09-21T07:18:23;26.08;;;15.45;;
10761;SDS011;5433;50.862;4.320;2022-09-21T07:20:49;110.28;;;60.33;;
10761;SDS011;5433;50.862;4.320;2022-09-21T07:23:16;222.30;;;88.38;;
10761;SDS011;5433;50.862;4.320;2022-09-21T07:25:43;167.80;;;62.15;;
10761;SDS011;5433;50.862;4.320;2022-09-21T07:28:10;18.98;;;12.13;;
10761;SDS011;5433;50.862;4.320;2022-09-21T07:30:36;15.30;;;11.20;;
10761;SDS011;5433;50.862;4.320;2022-09-21T07:33:03;18.42;;;11.48;;
10761;SDS011;5433;50.862;4.320;2022-09-21T07:35:29;61.53;;;47.40;;
10761;SDS011;5433;50.862;4.320;2022-09-21T07:37:59;19.00;;;12.02;;
10761;SDS011;5433;50.862;4.320;2022-09-21T07:40:25;18.17;;;11.90;;
10761;SDS011;5433;50.862;4.320;2022-09-21T07:42:51;20.52;;;11.75;;
10761;SDS011;5433;50.862;4.320;2022-09-21T07:45:17;18.48;;;11.57;;
10761;SDS011;5433;50.862;4.320;2022-09-21T07:47:43;18.63;;;12.73;;
10761;SDS011;5433;50.862;4.320;2022-09-21T07:50:10;16.70;;;11.77;;
10761;SDS011;5433;50.862;4.320;2022-09-21T07:52:36;18.27;;;12.90;;
10761;SDS011;5433;50.862;4.320;2022-09-21T07:55:02;17.13;;;11.35;;
10761;SDS011;5433;50.862;4.320;2022-09-21T07:57:28;18.75;;;11.40;;
10761;SDS011;5433;50.862;4.320;2022-09-21T08:00:13;17.75;;;10.90;;
10761;SDS011;5433;50.862;4.320;2022-09-21T08:02:39;15.68;;;11.55;;
10761;SDS011;5433;50.862;4.320;2022-09-21T08:05:05;15.32;;;11.38;;
10761;SDS011;5433;50.862;4.320;2022-09-21T08:07:32;16.20;;;11.55;;
10761;SDS011;5433;50.862;4.320;2022-09-21T08:09:59;16.83;;;10.80;;
10761;SDS011;5433;50.862;4.320;2022-09-21T08:12:26;18.17;;;11.15;;
10761;SDS011;5433;50.862;4.320;2022-09-21T08:14:52;18.10;;;12.73;;
10761;SDS011;5433;50.862;4.320;2022-09-21T08:17:21;17.48;;;11.02;;
10761;SDS011;5433;50.862;4.320;2022-09-21T08:22:54;19.98;;;12.07;;
10761;SDS011;5433;50.862;4.320;2022-09-21T08:25:20;16.88;;;10.73;;
10761;SDS011;5433;50.862;4.320;2022-09-21T08:27:46;18.85;;;9.95;;
10761;SDS011;5433;50.862;4.320;2022-09-21T08:30:13;14.73;;;10.27;;
10761;SDS011;5433;50.862;4.320;2022-09-21T08:32:39;20.77;;;9.80;;
10761;SDS011;5433;50.862;4.320;2022-09-21T08:35:06;18.73;;;8.90;;
10761;SDS011;5433;50.862;4.320;2022-09-21T08:37:32;18.88;;;9.80;;
10761;SDS011;5433;50.862;4.320;2022-09-21T08:40:00;18.10;;;9.13;;
10761;SDS011;5433;50.862;4.320;2022-09-21T08:45:37;13.50;;;5.75;;
10761;SDS011;5433;50.862;4.320;2022-09-21T08:48:05;12.10;;;6.43;;
10761;SDS011;5433;50.862;4.320;2022-09-21T08:50:39;9.00;;;5.97;;
10761;SDS011;5433;50.862;4.320;2022-09-21T08:53:13;8.57;;;5.05;;
10761;SDS011;5433;50.862;4.320;2022-09-21T08:55:44;8.43;;;3.60;;
10761;SDS011;5433;50.862;4.320;2022-09-21T08:58:26;8.35;;;4.25;;
10761;SDS011;5433;50.862;4.320;2022-09-21T09:03:28;8.95;;;3.45;;
10761;SDS011;5433;50.862;4.320;2022-09-21T09:06:00;7.63;;;3.22;;
10761;SDS011;5433;50.862;4.320;2022-09-21T09:19:32;6.97;;;3.25;;
10761;SDS011;5433;50.862;4.320;2022-09-21T09:22:00;10.32;;;3.83;;
10761;SDS011;5433;50.862;4.320;2022-09-21T09:24:30;9.00;;;3.38;;
10761;SDS011;5433;50.862;4.320;2022-09-21T09:27:05;9.57;;;3.38;;
10761;SDS011;5433;50.862;4.320;2022-09-21T09:29:44;3.85;;;2.20;;
10761;SDS011;5433;50.862;4.320;2022-09-21T09:32:14;6.55;;;2.80;;
10761;SDS011;5433;50.862;4.320;2022-09-21T09:34:41;6.65;;;2.80;;
10761;SDS011;5433;50.862;4.320;2022-09-21T09:37:12;7.95;;;3.88;;
10761;SDS011;5433;50.862;4.320;2022-09-21T09:39:38;6.47;;;3.45;;
10761;SDS011;5433;50.862;4.320;2022-09-21T09:44:58;10.05;;;4.10;;
10761;SDS011;5433;50.862;4.320;2022-09-21T09:47:33;8.18;;;3.63;;
10761;SDS011;5433;50.862;4.320;2022-09-21T09:50:08;9.00;;;2.10;;
10761;SDS011;5433;50.862;4.320;2022-09-21T09:52:35;6.78;;;2.85;;
10761;SDS011;5433;50.862;4.320;2022-09-21T09:55:21;4.82;;;2.15;;
10761;SDS011;5433;50.862;4.320;2022-09-21T09:57:48;6.13;;;2.42;;
10761;SDS011;5433;50.862;4.320;2022-09-21T10:00:16;3.22;;;1.73;;
10761;SDS011;5433;50.862;4.320;2022-09-21T10:07:45;6.88;;;1.73;;
10761;SDS011;5433;50.862;4.320;2022-09-21T10:10:21;6.78;;;2.20;;
10761;SDS011;5433;50.862;4.320;2022-09-21T10:12:47;5.13;;;1.85;;
10761;SDS011;5433;50.862;4.320;2022-09-21T10:15:15;4.75;;;1.80;;
10761;SDS011;5433;50.862;4.320;2022-09-21T10:17:43;3.55;;;1.50;;
10761;SDS011;5433;50.862;4.320;2022-09-21T10:20:14;3.38;;;1.27;;
10761;SDS011;5433;50.862;4.320;2022-09-21T10:22:42;3.45;;;1.48;;
10761;SDS011;5433;50.862;4.320;2022-09-21T10:25:14;3.80;;;1.50;;
10761;SDS011;5433;50.862;4.320;2022-09-21T10:27:41;3.65;;;1.60;;
10761;SDS011;5433;50.862;4.320;2022-09-21T10:30:30;6.03;;;1.80;;
10761;SDS011;5433;50.862;4.320;2022-09-21T10:32:55;5.25;;;1.80;;
10761;SDS011;5433;50.862;4.320;2022-09-21T10:35:21;4.28;;;1.50;;
10761;SDS011;5433;50.862;4.320;2022-09-21T10:37:47;4.60;;;1.70;;
10761;SDS011;5433;50.862;4.320;2022-09-21T10:40:25;4.43;;;1.55;;
10761;SDS011;5433;50.862;4.320;2022-09-21T10:42:52;5.13;;;1.42;;
10761;SDS011;5433;50.862;4.320;2022-09-21T10:45:23;3.45;;;1.42;;
10761;SDS011;5433;50.862;4.320;2022-09-21T10:50:24;3.97;;;1.38;;
10761;SDS011;5433;50.862;4.320;2022-09-21T11:04:47;8.30;;;1.42;;
10761;SDS011;5433;50.862;4.320;2022-09-21T11:07:16;4.82;;;1.50;;
10761;SDS011;5433;50.862;4.320;2022-09-21T11:09:46;3.55;;;1.20;;
10761;SDS011;5433;50.862;4.320;2022-09-21T11:12:28;4.60;;;1.20;;
10761;SDS011;5433;50.862;4.320;2022-09-21T11:17:32;2.50;;;1.00;;
10761;SDS011;5433;50.862;4.320;2022-09-21T11:23:11;3.65;;;1.20;;
10761;SDS011;5433;50.862;4.320;2022-09-21T11:25:41;4.03;;;1.08;;
10761;SDS011;5433;50.862;4.320;2022-09-21T11:28:31;3.80;;;1.02;;
10761;SDS011;5433;50.862;4.320;2022-09-21T11:31:14;4.85;;;1.30;;
10761;SDS011;5433;50.862;4.320;2022-09-21T11:52:07;5.78;;;1.17;;
10761;SDS011;5433;50.862;4.320;2022-09-21T12:05:19;4.72;;;1.52;;
10761;SDS011;5433;50.862;4.320;2022-09-21T12:10:35;2.28;;;1.10;;
10761;SDS011;5433;50.862;4.320;2022-09-21T12:13:18;2.33;;;1.20;;
10761;SDS011;5433;50.862;4.320;2022-09-21T12:18:40;2.03;;;1.00;;
10761;SDS011;5433;50.862;4.320;2022-09-21T12:21:10;2.50;;;0.98;;
10761;SDS011;5433;50.862;4.320;2022-09-21T12:26:07;2.92;;;1.23;;
10761;SDS011;5433;50.862;4.320;2022-09-21T12:28:45;4.45;;;1.10;;
10761;SDS011;5433;50.862;4.320;2022-09-21T12:31:14;16.17;;;2.08;;
10761;SDS011;5433;50.862;4.320;2022-09-21T12:38:47;3.08;;;1.10;;
10761;SDS011;5433;50.862;4.320;2022-09-21T12:41:21;2.58;;;0.90;;
10761;SDS011;5433;50.862;4.320;2022-09-21T12:44:01;4.05;;;1.10;;
10761;SDS011;5433;50.862;4.320;2022-09-21T12:49:18;1.75;;;0.70;;
10761;SDS011;5433;50.862;4.320;2022-09-21T12:51:48;2.20;;;1.00;;
10761;SDS011;5433;50.862;4.320;2022-09-21T12:54:27;2.35;;;1.15;;
10761;SDS011;5433;50.862;4.320;2022-09-21T13:02:33;3.92;;;1.20;;
10761;SDS011;5433;50.862;4.320;2022-09-21T13:09:56;4.80;;;1.20;;
10761;SDS011;5433;50.862;4.320;2022-09-21T13:12:23;3.08;;;1.10;;
10761;SDS011;5433;50.862;4.320;2022-09-21T13:14:55;1.63;;;1.10;;
10761;SDS011;5433;50.862;4.320;2022-09-21T13:17:30;4.05;;;1.20;;
10761;SDS011;5433;50.862;4.320;2022-09-21T13:19:58;3.67;;;1.20;;
10761;SDS011;5433;50.862;4.320;2022-09-21T13:22:26;4.60;;;1.13;;
10761;SDS011;5433;50.862;4.320;2022-09-21T13:30:29;3.35;;;1.17;;
10761;SDS011;5433;50.862;4.320;2022-09-21T13:32:55;7.43;;;1.73;;
10761;SDS011;5433;50.862;4.320;2022-09-21T13:40:54;4.22;;;1.40;;
10761;SDS011;5433;50.862;4.320;2022-09-21T13:43:21;4.20;;;1.42;;
10761;SDS011;5433;50.862;4.320;2022-09-21T13:45:52;4.20;;;1.38;;
10761;SDS011;5433;50.862;4.320;2022-09-21T13:48:41;3.17;;;1.42;;
10761;SDS011;5433;50.862;4.320;2022-09-21T13:51:19;9.15;;;1.48;;
10761;SDS011;5433;50.862;4.320;2022-09-21T13:53:54;1.58;;;1.02;;
10761;SDS011;5433;50.862;4.320;2022-09-21T13:56:25;3.85;;;1.00;;
10761;SDS011;5433;50.862;4.320;2022-09-21T13:59:14;4.53;;;1.30;;
10761;SDS011;5433;50.862;4.320;2022-09-21T14:01:42;2.67;;;1.35;;
10761;SDS011;5433;50.862;4.320;2022-09-21T14:04:16;5.32;;;1.50;;
10761;SDS011;5433;50.862;4.320;2022-09-21T14:06:43;2.08;;;1.20;;
10761;SDS011;5433;50.862;4.320;2022-09-21T14:09:20;2.05;;;1.20;;
10761;SDS011;5433;50.862;4.320;2022-09-21T14:11:51;5.22;;;1.42;;
10761;SDS011;5433;50.862;4.320;2022-09-21T14:16:52;2.55;;;1.08;;
10761;SDS011;5433;50.862;4.320;2022-09-21T14:24:35;3.45;;;1.30;;
10761;SDS011;5433;50.862;4.320;2022-09-21T14:29:57;2.88;;;1.27;;
10761;SDS011;5433;50.862;4.320;2022-09-21T14:32:27;1.88;;;1.17;;
10761;SDS011;5433;50.862;4.320;2022-09-21T14:34:55;2.25;;;1.30;;
10761;SDS011;5433;50.862;4.320;2022-09-21T14:39:51;5.18;;;1.33;;
10761;SDS011;5433;50.862;4.320;2022-09-21T14:42:18;3.33;;;1.33;;
10761;SDS011;5433;50.862;4.320;2022-09-21T14:44:46;3.85;;;1.20;;
10761;SDS011;5433;50.862;4.320;2022-09-21T15:02:38;3.00;;;1.23;;
10761;SDS011;5433;50.862;4.320;2022-09-21T15:05:11;1.98;;;1.10;;
10761;SDS011;5433;50.862;4.320;2022-09-21T15:10:59;3.03;;;1.20;;
10761;SDS011;5433;50.862;4.320;2022-09-21T15:18:32;4.32;;;1.60;;
10761;SDS011;5433;50.862;4.320;2022-09-21T15:21:00;3.03;;;1.27;;
10761;SDS011;5433;50.862;4.320;2022-09-21T15:23:32;6.15;;;3.80;;
10761;SDS011;5433;50.862;4.320;2022-09-21T15:26:00;3.28;;;1.40;;
10761;SDS011;5433;50.862;4.320;2022-09-21T15:28:37;4.38;;;2.13;;
10761;SDS011;5433;50.862;4.320;2022-09-21T15:31:07;2.67;;;1.20;;
10761;SDS011;5433;50.862;4.320;2022-09-21T15:33:37;4.90;;;1.60;;
10761;SDS011;5433;50.862;4.320;2022-09-21T15:36:06;1.95;;;1.67;;
10761;SDS011;5433;50.862;4.320;2022-09-21T15:38:33;4.35;;;1.77;;
10761;SDS011;5433;50.862;4.320;2022-09-21T15:41:00;2.85;;;1.80;;
10761;SDS011;5433;50.862;4.320;2022-09-21T15:43:26;2.65;;;1.77;;
10761;SDS011;5433;50.862;4.320;2022-09-21T15:48:23;2.58;;;2.13;;
10761;SDS011;5433;50.862;4.320;2022-09-21T15:50:58;6.88;;;1.65;;
10761;SDS011;5433;50.862;4.320;2022-09-21T15:53:29;3.03;;;1.38;;
10761;SDS011;5433;50.862;4.320;2022-09-21T15:55:56;2.28;;;1.20;;
10761;SDS011;5433;50.862;4.320;2022-09-21T15:58:32;4.82;;;1.48;;
10761;SDS011;5433;50.862;4.320;2022-09-21T16:01:01;3.58;;;1.23;;
10761;SDS011;5433;50.862;4.320;2022-09-21T16:03:27;1.67;;;1.10;;
10761;SDS011;5433;50.862;4.320;2022-09-21T16:05:54;3.58;;;1.35;;
10761;SDS011;5433;50.862;4.320;2022-09-21T16:08:31;4.65;;;1.20;;
10761;SDS011;5433;50.862;4.320;2022-09-21T16:11:13;3.90;;;1.10;;
10761;SDS011;5433;50.862;4.320;2022-09-21T16:13:44;3.70;;;1.30;;
10761;SDS011;5433;50.862;4.320;2022-09-21T16:16:29;2.65;;;1.38;;
10761;SDS011;5433;50.862;4.320;2022-09-21T16:18:55;4.03;;;1.50;;
10761;SDS011;5433;50.862;4.320;2022-09-21T16:23:51;3.92;;;1.30;;
10761;SDS011;5433;50.862;4.320;2022-09-21T16:26:27;2.45;;;1.20;;
10761;SDS011;5433;50.862;4.320;2022-09-21T16:28:58;3.03;;;1.00;;
10761;SDS011;5433;50.862;4.320;2022-09-21T16:31:41;2.53;;;1.63;;
10761;SDS011;5433;50.862;4.320;2022-09-21T16:34:20;2.35;;;1.40;;
10761;SDS011;5433;50.862;4.320;2022-09-21T16:36:47;1.92;;;1.30;;
10761;SDS011;5433;50.862;4.320;2022-09-21T16:39:15;4.13;;;1.38;;
10761;SDS011;5433;50.862;4.320;2022-09-21T16:41:45;3.38;;;1.27;;
10761;SDS011;5433;50.862;4.320;2022-09-21T16:44:13;2.58;;;1.20;;
10761;SDS011;5433;50.862;4.320;2022-09-21T16:46:44;4.70;;;1.48;;
10761;SDS011;5433;50.862;4.320;2022-09-21T16:49:14;2.00;;;1.10;;
10761;SDS011;5433;50.862;4.320;2022-09-21T16:51:45;4.63;;;2.25;;
10761;SDS011;5433;50.862;4.320;2022-09-21T16:54:12;5.15;;;1.50;;
10761;SDS011;5433;50.862;4.320;2022-09-21T16:56:38;3.40;;;1.73;;
10761;SDS011;5433;50.862;4.320;2022-09-21T16:59:12;4.85;;;1.92;;
10761;SDS011;5433;50.862;4.320;2022-09-21T17:01:40;5.82;;;1.50;;
10761;SDS011;5433;50.862;4.320;2022-09-21T17:04:09;2.92;;;1.15;;
10761;SDS011;5433;50.862;4.320;2022-09-21T17:06:37;6.05;;;1.50;;
10761;SDS011;5433;50.862;4.320;2022-09-21T17:09:37;6.78;;;2.15;;
10761;SDS011;5433;50.862;4.320;2022-09-21T17:11:57;4.43;;;2.03;;
10761;SDS011;5433;50.862;4.320;2022-09-21T17:14:25;4.88;;;1.75;;
10761;SDS011;5433;50.862;4.320;2022-09-21T17:16:52;6.38;;;2.22;;
10761;SDS011;5433;50.862;4.320;2022-09-21T17:19:19;3.00;;;1.60;;
10761;SDS011;5433;50.862;4.320;2022-09-21T17:21:46;3.60;;;1.80;;
10761;SDS011;5433;50.862;4.320;2022-09-21T17:24:12;6.85;;;2.30;;
10761;SDS011;5433;50.862;4.320;2022-09-21T17:26:39;5.97;;;2.45;;
10761;SDS011;5433;50.862;4.320;2022-09-21T17:29:21;9.35;;;2.22;;
10761;SDS011;5433;50.862;4.320;2022-09-21T17:31:48;10.63;;;2.35;;
10761;SDS011;5433;50.862;4.320;2022-09-21T17:34:17;5.78;;;2.40;;
10761;SDS011;5433;50.862;4.320;2022-09-21T17:36:44;7.45;;;2.85;;
10761;SDS011;5433;50.862;4.320;2022-09-21T17:39:10;7.00;;;2.40;;
10761;SDS011;5433;50.862;4.320;2022-09-21T17:42:00;5.47;;;2.40;;
10761;SDS011;5433;50.862;4.320;2022-09-21T17:49:29;5.03;;;2.80;;
10761;SDS011;5433;50.862;4.320;2022-09-21T17:51:55;3.83;;;2.22;;
10761;SDS011;5433;50.862;4.320;2022-09-21T17:54:40;3.50;;;2.30;;
10761;SDS011;5433;50.862;4.320;2022-09-21T17:57:10;4.15;;;2.65;;
10761;SDS011;5433;50.862;4.320;2022-09-21T17:59:39;6.55;;;3.00;;
10761;SDS011;5433;50.862;4.320;2022-09-21T18:02:22;5.97;;;3.08;;
10761;SDS011;5433;50.862;4.320;2022-09-21T18:04:49;10.23;;;3.13;;
10761;SDS011;5433;50.862;4.320;2022-09-21T18:07:16;5.50;;;2.80;;
10761;SDS011;5433;50.862;4.320;2022-09-21T18:09:43;5.60;;;3.28;;
10761;SDS011;5433;50.862;4.320;2022-09-21T18:12:18;7.15;;;2.90;;
10761;SDS011;5433;50.862;4.320;2022-09-21T18:20:46;5.53;;;3.33;;
10761;SDS011;5433;50.862;4.320;2022-09-21T18:25:44;5.30;;;3.03;;
10761;SDS011;5433;50.862;4.320;2022-09-21T18:28:16;5.82;;;3.13;;
10761;SDS011;5433;50.862;4.320;2022-09-21T18:30:49;6.93;;;4.25;;
10761;SDS011;5433;50.862;4.320;2022-09-21T18:36:11;5.65;;;3.15;;
10761;SDS011;5433;50.862;4.320;2022-09-21T18:38:42;5.55;;;2.83;;
10761;SDS011;5433;50.862;4.320;2022-09-21T18:46:20;36.95;;;30.55;;
10761;SDS011;5433;50.862;4.320;2022-09-21T18:54:20;5.10;;;3.30;;
10761;SDS011;5433;50.862;4.320;2022-09-21T18:56:47;6.05;;;3.40;;
10761;SDS011;5433;50.862;4.320;2022-09-21T18:59:13;6.60;;;3.58;;